Terminal Aerodrome Forecast
Issued by NWS

Home | Current Version | Previous Version | Graphics & Text | Print | Product List | Glossary On
Versions: 1 2 3 4 5 6 7 8 9 10 11 12 13 14 15 16 17 18 19 20 21 22 23 24 25 26 27 28 29 30 31 32 33 34 35 36 37
000
FTUS43 KLOT 240800 AAA
TAFDPA
TAF AMD
KDPA 240802Z 2408/2506 24010KT 2SM -RA BR OVC004
     FM241300 27015G22KT 3SM -RA BR BKN007 OVC015
     FM241600 27020G30KT 3SM -RASN SCT007 OVC012
     FM241900 25024G33KT 4SM -SN SCT007 OVC015
     FM250200 25017G27KT 6SM -SN SCT010 OVC020=

USA.gov is the U.S. government's official web portal to all federal, state and local government web resources and services.